Weather at Shinagawa Seaside West Tower Helipad

Public forecast

Using degrees Celsius for public forecast. Weather courtesy of forecast.io.

Closest aviation weather report (METAR) to Shinagawa Seaside West Tower Helipad

Closest report is Tokyo Haneda International Airport, 3.8 nm (7.0 km) SSE.

2023/03/26 02:30 (retrieved 20 minutes ago)

RJTT 260230Z 33014KT 6000 RA BKN005 BKN010 12/11 Q1012 TEMPO 4000 RA BR RMK 5ST005 7SC010 A2990

Closest aviation forecast (TAF) to Shinagawa Seaside West Tower Helipad

Closest forecast is Yokota Air Base, 21.2 nm (39.3 km) WNW.

2023/03/25 21:57 (retrieved 5 hours ago)

TAF TAF RJTY 252100Z 2521/2703 35006KT 3600 -RA BR SCT012 OVC015 QNH2992INS TEMPO 2521/2601 4800 -RA BR SCT012 SCT015 OVC018 BECMG 2601/2603 35009KT 4800 -RA BR SCT015 BKN018 OVC025 QNH2972INS TEMPO 2603/2609 4000 RA BR BKN015 BKN025 OVC045 BECMG 2609/2610 33006KT 8000 -RA BR SCT015 BKN025 BKN045 OVC060 QNH2972INS BECMG 2610/2612 32006KT 9999 NSW FEW025 SCT045 OVC060 QNH2972INS BECMG 2619/2620 32010G15KT 9999 SCT060 QNH2990INS TEMPO 2623/2703 32012G22KT TX12/2605Z TN10/2521Z